Terminal Aerodrome Forecast
Issued by NWS Green Bay, WI

Home | Current Version | Previous Version | Graphics & Text | Print | Product List | Glossary On
Versions: 1 2 3 4 5 6 7 8 9 10 11 12 13 14 15 16 17 18 19 20 21 22 23 24 25 26 27
000
FTUS43 KGRB 261700
TAFGRB
TAF
KGRB 261739Z 2618/2718 32008KT P6SM SCT030 BKN250
     FM270200 32003KT P6SM SCT100
     FM270700 03003KT P6SM SCT040 BKN100
     FM271300 04008KT P6SM BKN040=

USA.gov is the U.S. government's official web portal to all federal, state and local government web resources and services.